Airfield :
LOGIN :

Register | Disclaimer

   EN    FR    IT 

 










Legend :    VFR   Marginal VFR   IFR   Intensive IFR   Very Intensive IFR
Visi :
Ceiling :
>= 8 km
>= 3000ft
5 to 8 km
1000 to 3000 ft
1500m to 5 km
500 to 1000 ft
800 to 1500m
200 to 500 ft
< 800m
< 200 ft
Symbols :   Thunderstorms  Fog  Heavy snow  Heavy precipitations  Wind > 20 kt
SIGMETs :     Misc.  Thunderstorms  Icing  Turbulence  Mountain Waves  Volcanic Ashes







- Airport Elevation : 75 ft
- IATA code : MRH


EGYM - RAF Marham

CURRENT METAR :
  • 190650Z 12006KT 1500 BR OVC002 14/14 Q1006 AMB TEMPO 0500 FG BKN001 RED

EXPIRED METARs :
  • 190550Z 14004KT 2000 BR OVC003 14/14 Q1007 YLO2 TEMPO 0500 FG BKN001 RED
  • 190450Z 16004KT 2000 BR OVC004 14/14 Q1007 YLO2

TAF TAF EGYM
Valid from the 19 at 06:00 until the 19 at 15:00 UTC


190437Z 1906/1915 16008KT 4000 BR BKN005
TEMPO 1906/1911 2000 RADZ BKN003
PROB30
TEMPO 1906/1910 0500 FG BKN000
BECMG 1911/1913 6000 BR SCT008
PROB30
TEMPO 1911/1915 4000 RA
No reported NOTAMs for that airfield.



MET'MAP, your aeronautical weather chart ! - Copyright ORBIFLY December 2007 - Disclaimer

ORBIFLY MET'MAP TEAM :

Programming & Development : Alexandra Zaïnal
Concept & Development : Baudouin d'Aumeries
Co-Development & Prog : Marc-Olivier Méhu
Technical & hardware support : Manuel Goepfert

Contact : metmap@orbifly.com




SOURCES & CREDITS :

   NOAA